18°C Temp
0°C Dewpoint
% Humidity
Temperature
19 KM/H
12 MPH
10 KTS
30°
North North
East

Wind Speed
Clear
Conditions
Pressure 1016.92 (hPa) - 30.03 (in)
Visibility 6.2 (mi) - 10.0 (km)

Current Conditions
YPPH
Location 20(km)
Metar :YPPH 040830Z 03010KT CAVOK 18/M00 Q1017
Mon 4th July 16:30 pm

Airport
  Metar Aviation API Data Provided by https://www.checkwx.com/ PHP scripts by weather34.com ©2022